Time;durP1;ratioP1;P1;durP2;ratioP2;P2;SDS_P1;SDS_P2;PMS_P1;PMS_P2;Temp;Humidity;BMP_temperature;BMP_pressure;BME280_temperature;BME280_humidity;BME280_pressure;Samples;Min_cycle;Max_cycle;Signal;HPM_P1;HPM_P2
2024/01/11 00:00:50;;;;;;;271.80;166.40;;;;;;;-4.94;77.64;99000.56;107195;1275;22532;-74
2024/01/11 00:03:36;;;;;;;279.00;168.50;;;;;;;-5.58;77.78;98992.20;106892;1274;22524;-74
2024/01/11 00:06:04;;;;;;;285.00;176.50;;;;;;;-5.96;77.97;98989.77;106829;1259;23478;-73
2024/01/11 00:08:32;;;;;;;282.50;170.40;;;;;;;-6.32;78.30;98982.98;106753;1276;22541;-74
2024/01/11 00:11:01;;;;;;;280.10;162.30;;;;;;;-6.63;78.20;98979.09;106932;1268;23365;-73
2024/01/11 00:13:29;;;;;;;266.50;155.50;;;;;;;-6.84;78.21;98973.39;106853;1277;25529;-75
2024/01/11 00:15:57;;;;;;;270.50;161.20;;;;;;;-6.96;78.48;98977.16;106897;1269;22983;-73
2024/01/11 00:18:25;;;;;;;278.90;165.10;;;;;;;-7.06;79.00;98982.36;106806;1260;25493;-73
2024/01/11 00:20:53;;;;;;;276.10;164.40;;;;;;;-7.20;78.64;98983.25;106810;1256;22557;-74
2024/01/11 00:23:21;;;;;;;230.40;132.30;;;;;;;-7.27;78.92;98980.50;106864;1265;22526;-73
2024/01/11 00:25:49;;;;;;;229.40;132.20;;;;;;;-7.33;80.00;98979.88;106883;1268;23141;-73
2024/01/11 00:28:17;;;;;;;219.70;129.00;;;;;;;-7.42;80.04;98980.48;106861;1253;22553;-75
2024/01/11 00:30:45;;;;;;;217.10;126.70;;;;;;;-7.46;79.84;98979.80;106857;1265;22545;-74
2024/01/11 00:33:13;;;;;;;227.70;130.60;;;;;;;-7.48;80.54;98976.69;106872;1275;22538;-73
2024/01/11 00:35:41;;;;;;;230.60;133.00;;;;;;;-7.48;80.78;98974.31;106975;1275;25246;-72
2024/01/11 00:38:09;;;;;;;215.90;125.90;;;;;;;-7.47;80.19;98973.48;106861;1275;24391;-74
2024/01/11 00:40:37;;;;;;;208.90;122.40;;;;;;;-7.45;80.36;98967.99;106839;1266;22998;-74
2024/01/11 00:43:05;;;;;;;206.80;119.90;;;;;;;-7.42;80.54;98967.70;106986;1269;24391;-74
2024/01/11 00:45:33;;;;;;;202.10;118.10;;;;;;;-7.41;80.46;98961.88;106875;1271;24398;-73
2024/01/11 00:48:01;;;;;;;206.20;117.00;;;;;;;-7.40;80.73;98957.77;107006;1267;24279;-75
2024/01/11 00:50:29;;;;;;;204.80;119.00;;;;;;;-7.38;80.80;98956.63;106917;1276;24042;-76
2024/01/11 00:52:57;;;;;;;198.60;112.40;;;;;;;-7.35;80.40;98950.59;106876;1269;24274;-75
2024/01/11 00:55:25;;;;;;;204.80;120.60;;;;;;;-7.33;81.08;98940.22;106849;1276;23894;-75
2024/01/11 00:57:53;;;;;;;205.10;115.90;;;;;;;-7.32;80.97;98937.27;106780;1276;24214;-75
2024/01/11 01:00:21;;;;;;;205.60;115.50;;;;;;;-7.31;81.32;98935.02;106917;1274;23116;-75
2024/01/11 01:02:49;;;;;;;205.20;118.50;;;;;;;-7.33;81.64;98939.56;106801;1262;22674;-75
2024/01/11 01:05:17;;;;;;;196.30;117.30;;;;;;;-7.36;81.81;98940.21;106868;1262;22641;-75
2024/01/11 01:07:45;;;;;;;195.30;115.10;;;;;;;-7.40;81.84;98940.79;106907;1263;25732;-75
2024/01/11 01:10:13;;;;;;;201.70;113.60;;;;;;;-7.46;82.21;98940.16;106820;1265;22546;-74
2024/01/11 01:12:41;;;;;;;197.30;114.60;;;;;;;-7.53;82.45;98942.14;106951;1275;24270;-73
2024/01/11 01:15:09;;;;;;;189.90;106.90;;;;;;;-7.58;82.48;98945.66;107026;1269;22537;-72
2024/01/11 01:17:37;;;;;;;190.20;107.00;;;;;;;-7.63;82.76;98941.23;106973;1268;22550;-72
2024/01/11 01:20:06;;;;;;;175.40;105.30;;;;;;;-7.65;83.10;98935.37;106934;1273;25429;-72
2024/01/11 01:22:34;;;;;;;169.50;100.00;;;;;;;-7.65;83.05;98938.55;106925;1274;24349;-72
2024/01/11 01:25:02;;;;;;;159.00;94.90;;;;;;;-7.64;83.34;98937.91;106845;1275;25253;-72
2024/01/11 01:27:30;;;;;;;160.20;93.70;;;;;;;-7.63;83.22;98931.10;106838;1263;25429;-71
2024/01/11 01:29:58;;;;;;;140.60;86.00;;;;;;;-7.60;83.42;98928.02;106845;1274;22540;-71
2024/01/11 01:32:26;;;;;;;131.00;84.00;;;;;;;-7.57;83.57;98930.90;106905;1275;25350;-72
2024/01/11 01:34:55;;;;;;;137.10;83.90;;;;;;;-7.55;83.18;98929.56;106788;1265;25362;-71
2024/01/11 01:37:23;;;;;;;138.30;87.40;;;;;;;-7.50;83.53;98929.16;106824;1275;24024;-72
2024/01/11 01:39:50;;;;;;;132.90;83.20;;;;;;;-7.52;83.43;98927.02;106810;1263;23932;-71
2024/01/11 01:42:20;;;;;;;123.50;79.60;;;;;;;-7.50;83.51;98926.15;106829;1274;22533;-72
2024/01/11 01:44:47;;;;;;;121.80;77.70;;;;;;;-7.50;83.51;98927.16;106801;1261;24236;-72
2024/01/11 01:47:17;;;;;;;119.40;77.70;;;;;;;-7.48;83.46;98927.86;106845;1268;26648;-71
2024/01/11 01:49:48;;;;;;;123.70;81.50;;;;;;;-7.49;83.27;98919.09;106892;1275;23259;-70
2024/01/11 01:52:16;;;;;;;127.10;79.70;;;;;;;-7.47;83.02;98912.71;106796;1253;22536;-71
2024/01/11 01:54:45;;;;;;;118.10;76.20;;;;;;;-7.46;83.29;98913.83;106850;1264;22530;-70
2024/01/11 01:57:14;;;;;;;121.10;80.60;;;;;;;-7.47;83.39;98918.17;106848;1269;24239;-71
2024/01/11 01:59:43;;;;;;;126.90;79.70;;;;;;;-7.51;83.31;98918.77;106882;1273;22534;-71
2024/01/11 02:02:12;;;;;;;128.10;82.60;;;;;;;-7.57;83.46;98918.27;106858;1256;22537;-71
2024/01/11 02:04:40;;;;;;;118.30;80.90;;;;;;;-7.59;83.40;98913.81;106768;1270;22645;-73
2024/01/11 02:07:08;;;;;;;119.40;76.60;;;;;;;-7.60;83.31;98915.28;106868;1259;24266;-72
2024/01/11 02:09:36;;;;;;;119.60;77.40;;;;;;;-7.59;83.26;98914.66;106955;1275;22613;-71
2024/01/11 02:12:06;;;;;;;125.70;80.20;;;;;;;-7.56;83.43;98913.83;106818;1271;22550;-72
2024/01/11 02:14:34;;;;;;;124.50;78.80;;;;;;;-7.57;83.32;98912.54;107028;1274;25255;-73
2024/01/11 02:17:02;;;;;;;121.90;77.60;;;;;;;-7.54;83.29;98907.38;106999;1274;24274;-71
2024/01/11 02:19:30;;;;;;;127.40;80.00;;;;;;;-7.53;83.40;98900.09;106999;1260;26314;-73
2024/01/11 02:22:01;;;;;;;106.80;75.60;;;;;;;-7.54;83.37;98900.15;107045;1275;25366;-73
2024/01/11 02:24:29;;;;;;;110.50;75.30;;;;;;;-7.55;83.50;98902.24;107047;1261;24216;-73
2024/01/11 02:27:03;;;;;;;108.20;71.80;;;;;;;-7.58;83.56;98899.04;106929;1265;24235;-73
2024/01/11 02:29:31;;;;;;;107.80;74.60;;;;;;;-7.58;83.34;98891.93;106986;1275;24246;-71
2024/01/11 02:32:02;;;;;;;88.60;72.50;;;;;;;-7.59;83.20;98894.28;106946;1263;24332;-72
2024/01/11 02:34:30;;;;;;;105.60;72.00;;;;;;;-7.60;82.90;98895.56;106894;1259;24608;-72
2024/01/11 02:36:59;;;;;;;96.90;72.70;;;;;;;-7.58;83.08;98886.50;106871;1275;22559;-72
2024/01/11 02:39:27;;;;;;;90.50;70.60;;;;;;;-7.55;82.93;98887.75;106847;1261;22596;-72
2024/01/11 02:41:57;;;;;;;98.60;68.30;;;;;;;-7.53;82.95;98888.58;106858;1275;22549;-72
2024/01/11 02:44:25;;;;;;;85.90;68.90;;;;;;;-7.51;83.03;98887.02;106881;1262;23135;-73
2024/01/11 02:46:53;;;;;;;92.80;70.60;;;;;;;-7.53;83.01;98891.42;106909;1275;23016;-72
2024/01/11 02:49:21;;;;;;;89.80;66.40;;;;;;;-7.57;82.85;98881.49;106776;1256;23360;-72
2024/01/11 02:51:49;;;;;;;86.10;65.40;;;;;;;-7.59;82.91;98889.35;106860;1274;22540;-73
2024/01/11 02:54:17;;;;;;;92.10;67.90;;;;;;;-7.61;82.74;98892.73;106902;1262;24492;-72
2024/01/11 02:56:45;;;;;;;73.20;63.20;;;;;;;-7.62;82.74;98891.98;106905;1265;25376;-71
2024/01/11 02:59:13;;;;;;;84.10;64.30;;;;;;;-7.57;83.19;98891.35;106911;1275;22678;-72
2024/01/11 03:01:41;;;;;;;76.50;64.20;;;;;;;-7.52;82.95;98889.55;106755;1275;22543;-73
2024/01/11 03:04:09;;;;;;;79.60;61.50;;;;;;;-7.49;82.74;98886.60;106812;1275;22523;-73
2024/01/11 03:06:37;;;;;;;83.90;64.60;;;;;;;-7.46;82.49;98887.19;106912;1275;24219;-72
2024/01/11 03:09:05;;;;;;;70.90;61.60;;;;;;;-7.45;82.59;98882.52;106977;1275;22642;-72
2024/01/11 03:11:33;;;;;;;69.30;59.20;;;;;;;-7.44;82.50;98877.13;107022;1275;22548;-71
2024/01/11 03:14:02;;;;;;;70.70;58.40;;;;;;;-7.42;82.56;98868.94;107452;1265;23913;-73
2024/01/11 03:16:30;;;;;;;67.20;58.10;;;;;;;-7.41;82.38;98868.85;106974;1275;24101;-72
2024/01/11 03:19:00;;;;;;;69.10;58.80;;;;;;;-7.46;82.25;98860.65;106978;1275;25386;-73
2024/01/11 03:21:29;;;;;;;64.10;57.20;;;;;;;-7.45;82.39;98863.83;107138;1275;25300;-73
2024/01/11 03:23:57;;;;;;;70.70;59.80;;;;;;;-7.44;81.99;98861.41;106944;1269;22530;-73
2024/01/11 03:26:25;;;;;;;67.00;58.10;;;;;;;-7.44;81.90;98861.64;106861;1265;24263;-73
2024/01/11 03:28:53;;;;;;;65.80;57.00;;;;;;;-7.45;82.05;98859.84;106859;1262;25379;-73
2024/01/11 03:31:21;;;;;;;67.90;58.70;;;;;;;-7.49;81.92;98854.82;106871;1275;25268;-72
2024/01/11 03:33:49;;;;;;;78.00;57.10;;;;;;;-7.49;81.96;98857.96;106847;1275;23913;-72
2024/01/11 03:36:17;;;;;;;67.50;57.70;;;;;;;-7.52;82.00;98859.52;106843;1265;22540;-73
2024/01/11 03:38:45;;;;;;;63.30;55.70;;;;;;;-7.54;82.02;98861.09;106806;1275;22537;-73
2024/01/11 03:41:17;;;;;;;64.40;56.30;;;;;;;-7.55;82.00;98855.46;106797;1275;24283;-73
2024/01/11 03:43:45;;;;;;;67.30;56.00;;;;;;;-7.56;81.91;98850.69;106892;1275;23579;-72
2024/01/11 03:46:13;;;;;;;63.00;53.50;;;;;;;-7.57;81.67;98844.42;106815;1270;22518;-71
2024/01/11 03:48:40;;;;;;;62.40;55.30;;;;;;;-7.54;82.06;98843.61;106831;1275;25285;-72
2024/01/11 03:51:09;;;;;;;64.80;56.60;;;;;;;-7.54;81.72;98841.84;106838;1266;25432;-71
2024/01/11 03:53:37;;;;;;;64.70;57.60;;;;;;;-7.53;81.69;98838.48;106795;1275;22541;-71
2024/01/11 03:56:06;;;;;;;69.00;59.40;;;;;;;-7.55;81.57;98847.97;106800;1275;24271;-71
2024/01/11 03:58:36;;;;;;;67.10;59.10;;;;;;;-7.58;81.57;98844.23;106839;1275;25350;-72
2024/01/11 04:01:03;;;;;;;67.20;58.20;;;;;;;-7.57;81.51;98842.60;106983;1265;22534;-73
2024/01/11 04:03:31;;;;;;;66.90;57.10;;;;;;;-7.55;81.43;98853.57;106768;1275;22540;-72
2024/01/11 04:05:59;;;;;;;69.70;57.80;;;;;;;-7.55;81.21;98853.36;106860;1275;24214;-71
2024/01/11 04:08:27;;;;;;;67.80;58.40;;;;;;;-7.55;81.21;98844.50;106909;1271;22533;-72
2024/01/11 04:10:55;;;;;;;70.90;59.50;;;;;;;-7.54;81.30;98846.63;106959;1265;23145;-72
2024/01/11 04:13:24;;;;;;;71.10;62.00;;;;;;;-7.55;81.07;98848.84;107234;1275;22582;-73
2024/01/11 04:15:52;;;;;;;81.60;66.40;;;;;;;-7.61;81.07;98844.41;107052;1276;23303;-74
2024/01/11 04:18:20;;;;;;;103.00;73.00;;;;;;;-7.65;80.83;98840.40;106934;1276;25347;-73
2024/01/11 04:20:48;;;;;;;108.70;76.10;;;;;;;-7.69;80.93;98837.23;106856;1275;22560;-72
2024/01/11 04:23:16;;;;;;;94.10;71.10;;;;;;;-7.71;80.83;98829.20;107079;1269;22537;-73
2024/01/11 04:25:44;;;;;;;124.50;81.30;;;;;;;-7.78;80.72;98829.59;106924;1275;22544;-73
2024/01/11 04:28:12;;;;;;;111.50;77.90;;;;;;;-7.83;80.74;98843.98;106968;1258;22796;-73
2024/01/11 04:30:40;;;;;;;109.80;76.30;;;;;;;-7.94;81.12;98846.36;106777;1276;22547;-72
2024/01/11 04:33:08;;;;;;;110.80;77.90;;;;;;;-7.99;81.13;98844.41;106703;1275;26518;-72
2024/01/11 04:35:37;;;;;;;108.20;76.40;;;;;;;-8.06;80.86;98842.23;106746;1275;22583;-72
2024/01/11 04:38:05;;;;;;;109.10;73.10;;;;;;;-8.10;80.91;98844.05;106872;1275;22534;-72
2024/01/11 04:40:33;;;;;;;96.40;72.80;;;;;;;-8.15;81.11;98842.99;106765;1275;22547;-71
2024/01/11 04:43:01;;;;;;;100.60;72.10;;;;;;;-8.17;81.04;98837.92;106745;1255;23896;-71
2024/01/11 04:45:29;;;;;;;100.70;73.60;;;;;;;-8.19;80.87;98834.67;106917;1275;22574;-72
2024/01/11 04:47:57;;;;;;;110.20;75.60;;;;;;;-8.20;80.85;98843.17;106912;1276;25313;-70
2024/01/11 04:50:25;;;;;;;87.40;72.10;;;;;;;-8.21;80.97;98837.64;106825;1276;25404;-72
2024/01/11 04:52:53;;;;;;;95.70;73.20;;;;;;;-8.22;81.39;98838.74;106819;1275;22544;-72
2024/01/11 04:55:21;;;;;;;104.60;75.50;;;;;;;-8.27;81.27;98822.17;106763;1276;25259;-72
2024/01/11 04:57:49;;;;;;;94.80;73.70;;;;;;;-8.33;80.87;98820.16;106810;1276;22561;-73
2024/01/11 05:00:17;;;;;;;105.80;76.70;;;;;;;-8.33;81.03;98822.67;106738;1267;22541;-74
2024/01/11 05:02:45;;;;;;;111.70;76.50;;;;;;;-8.35;80.97;98824.59;106769;1269;22549;-73
2024/01/11 05:05:14;;;;;;;101.50;76.10;;;;;;;-8.35;81.02;98821.66;106831;1265;23891;-72
2024/01/11 05:07:42;;;;;;;135.30;92.10;;;;;;;-8.35;80.91;98819.36;106819;1276;22918;-72
2024/01/11 05:10:09;;;;;;;124.50;84.20;;;;;;;-8.35;81.09;98816.77;106814;1260;24214;-72
2024/01/11 05:12:38;;;;;;;125.60;81.00;;;;;;;-8.39;81.03;98809.68;106585;1274;26607;-73
2024/01/11 05:15:08;;;;;;;123.30;80.50;;;;;;;-8.43;80.94;98798.05;106809;1272;24338;-73
2024/01/11 05:17:36;;;;;;;113.20;78.60;;;;;;;-8.42;81.15;98794.65;106784;1269;25350;-72
2024/01/11 05:20:05;;;;;;;107.90;77.60;;;;;;;-8.47;81.11;98788.36;106817;1275;25421;-72
2024/01/11 05:22:33;;;;;;;120.10;85.80;;;;;;;-8.54;81.05;98781.65;106854;1276;22657;-73
2024/01/11 05:25:02;;;;;;;103.80;76.30;;;;;;;-8.62;81.47;98784.67;106792;1275;24330;-72
2024/01/11 05:27:30;;;;;;;87.00;68.60;;;;;;;-8.70;81.86;98785.95;106867;1263;22554;-73
2024/01/11 05:29:58;;;;;;;95.90;72.10;;;;;;;-8.77;82.12;98786.61;106965;1255;22904;-73
2024/01/11 05:32:26;;;;;;;103.50;74.90;;;;;;;-8.86;82.10;98787.23;106917;1276;25428;-73
2024/01/11 05:34:54;;;;;;;95.00;74.20;;;;;;;-8.90;82.23;98790.80;106950;1273;22556;-72
2024/01/11 05:37:22;;;;;;;93.50;70.50;;;;;;;-8.92;81.86;98794.67;106884;1276;26650;-72
2024/01/11 05:39:50;;;;;;;88.70;71.40;;;;;;;-8.93;82.12;98790.91;106921;1275;25350;-72
2024/01/11 05:42:18;;;;;;;86.00;67.40;;;;;;;-8.92;82.83;98793.89;106919;1276;22762;-73
2024/01/11 05:44:46;;;;;;;110.90;79.90;;;;;;;-8.92;82.79;98804.50;106891;1261;22762;-74
2024/01/11 05:47:14;;;;;;;174.50;110.10;;;;;;;-8.97;82.89;98809.69;106982;1276;23912;-73
2024/01/11 05:49:42;;;;;;;134.00;88.40;;;;;;;-9.00;83.05;98800.69;106922;1276;24252;-71
2024/01/11 05:52:10;;;;;;;107.00;79.10;;;;;;;-9.03;83.67;98801.50;106814;1276;22655;-71
2024/01/11 05:54:38;;;;;;;102.20;76.30;;;;;;;-9.04;83.31;98793.21;106795;1276;24389;-71
2024/01/11 05:57:07;;;;;;;77.40;66.90;;;;;;;-9.00;83.78;98784.30;106822;1270;22554;-70
2024/01/11 05:59:35;;;;;;;76.40;65.40;;;;;;;-8.99;84.00;98771.48;106776;1275;22540;-71
2024/01/11 06:02:03;;;;;;;70.00;62.60;;;;;;;-8.94;84.38;98770.39;106868;1273;22583;-72
2024/01/11 06:04:32;;;;;;;72.20;64.10;;;;;;;-8.88;84.70;98782.09;106886;1261;22534;-73
2024/01/11 06:07:00;;;;;;;66.60;58.40;;;;;;;-8.83;84.61;98785.19;106963;1263;22778;-71
2024/01/11 06:09:29;;;;;;;75.20;60.30;;;;;;;-8.79;84.80;98786.57;106929;1275;22534;-71
2024/01/11 06:11:56;;;;;;;69.40;59.00;;;;;;;-8.83;84.57;98785.91;106810;1260;22541;-71
2024/01/11 06:14:24;;;;;;;78.00;65.00;;;;;;;-8.83;84.71;98797.58;106879;1275;23014;-71
2024/01/11 06:16:52;;;;;;;87.40;68.70;;;;;;;-8.85;84.13;98790.06;106868;1260;23258;-71
2024/01/11 06:19:20;;;;;;;163.20;90.60;;;;;;;-8.79;84.07;98793.16;106888;1275;25359;-71
2024/01/11 06:21:48;;;;;;;133.20;77.20;;;;;;;-8.76;84.36;98775.12;106865;1275;24979;-71
2024/01/11 06:24:16;;;;;;;137.30;80.10;;;;;;;-8.73;84.26;98778.74;106841;1270;22537;-71
2024/01/11 06:26:44;;;;;;;116.10;76.30;;;;;;;-8.70;84.15;98787.67;106771;1275;24250;-72
2024/01/11 06:29:12;;;;;;;155.20;91.30;;;;;;;-8.70;84.37;98785.77;106794;1273;25361;-73
2024/01/11 06:31:40;;;;;;;161.10;94.00;;;;;;;-8.69;84.09;98772.46;106866;1275;22543;-72
2024/01/11 06:34:08;;;;;;;164.90;96.40;;;;;;;-8.65;83.93;98770.52;106826;1261;24316;-72
2024/01/11 06:36:36;;;;;;;165.50;95.90;;;;;;;-8.58;83.85;98768.20;106784;1261;25379;-72
2024/01/11 06:39:04;;;;;;;140.70;84.60;;;;;;;-8.52;83.74;98762.23;106720;1276;25426;-73
2024/01/11 06:41:31;;;;;;;145.60;85.00;;;;;;;-8.54;83.52;98754.05;106897;1263;25432;-72
2024/01/11 06:43:59;;;;;;;124.50;80.40;;;;;;;-8.52;83.45;98746.87;106859;1271;22562;-72
2024/01/11 06:46:28;;;;;;;82.30;66.60;;;;;;;-8.55;82.79;98740.27;106950;1275;24062;-72
2024/01/11 06:48:57;;;;;;;85.90;69.70;;;;;;;-8.59;82.82;98729.14;106875;1275;22546;-73
2024/01/11 06:51:25;;;;;;;83.20;69.70;;;;;;;-8.63;82.83;98713.50;106665;1275;22494;-72
2024/01/11 06:53:53;;;;;;;90.40;68.70;;;;;;;-8.64;82.93;98708.41;106778;1276;25503;-73
2024/01/11 06:56:21;;;;;;;85.50;71.00;;;;;;;-8.65;83.17;98706.82;106792;1275;22719;-72
2024/01/11 06:58:49;;;;;;;92.90;74.40;;;;;;;-8.74;82.90;98702.19;106798;1261;22568;-72
2024/01/11 07:01:18;;;;;;;98.30;74.30;;;;;;;-8.79;83.04;98701.40;106769;1270;23886;-72
2024/01/11 07:03:46;;;;;;;86.40;70.40;;;;;;;-8.81;83.44;98704.23;106907;1275;23309;-72
2024/01/11 07:06:15;;;;;;;78.40;66.60;;;;;;;-8.80;83.35;98704.12;106897;1273;22537;-72
2024/01/11 07:08:43;;;;;;;75.20;64.60;;;;;;;-8.82;83.75;98703.58;106816;1275;22530;-72
2024/01/11 07:11:12;;;;;;;72.90;64.40;;;;;;;-8.87;83.87;98714.71;106920;1264;24392;-73
2024/01/11 07:13:40;;;;;;;62.60;55.90;;;;;;;-8.88;84.39;98703.19;106885;1275;25539;-72
2024/01/11 07:16:08;;;;;;;65.00;58.10;;;;;;;-8.87;85.21;98700.42;106901;1275;25971;-73
2024/01/11 07:18:37;;;;;;;60.70;54.20;;;;;;;-8.85;85.38;98695.04;106855;1267;25290;-72
2024/01/11 07:21:06;;;;;;;65.50;58.30;;;;;;;-8.78;85.85;98695.41;106835;1260;22780;-72
2024/01/11 07:23:33;;;;;;;66.90;59.40;;;;;;;-8.74;85.46;98691.25;106828;1260;22538;-72
2024/01/11 07:26:02;;;;;;;61.00;54.50;;;;;;;-8.68;85.45;98682.73;106881;1269;24213;-72
2024/01/11 07:28:30;;;;;;;75.60;67.10;;;;;;;-8.57;85.61;98687.67;106867;1274;22549;-72
2024/01/11 07:30:58;;;;;;;67.30;60.30;;;;;;;-8.47;85.15;98687.27;106882;1271;22638;-74
2024/01/11 07:33:26;;;;;;;67.40;60.30;;;;;;;-8.35;85.42;98681.84;106667;1263;25266;-73
2024/01/11 07:35:55;;;;;;;64.60;57.80;;;;;;;-8.21;85.26;98679.91;106931;1274;23915;-72
2024/01/11 07:38:23;;;;;;;58.40;52.30;;;;;;;-8.04;85.48;98682.69;106998;1270;22570;-73
2024/01/11 07:40:51;;;;;;;55.90;50.30;;;;;;;-7.88;85.45;98686.88;107039;1270;22553;-72
2024/01/11 07:43:19;;;;;;;56.30;50.60;;;;;;;-7.67;85.52;98684.55;107005;1266;22972;-73
2024/01/11 07:45:47;;;;;;;55.20;49.30;;;;;;;-7.44;85.63;98685.92;106881;1275;24211;-72
2024/01/11 07:48:15;;;;;;;57.50;51.50;;;;;;;-7.25;85.38;98690.97;106754;1273;22620;-72
2024/01/11 07:50:44;;;;;;;47.60;42.50;;;;;;;-7.09;85.02;98706.18;106764;1275;22653;-72
2024/01/11 07:53:12;;;;;;;45.70;40.70;;;;;;;-6.95;84.56;98712.05;106949;1264;25494;-73
2024/01/11 07:55:40;;;;;;;47.70;42.80;;;;;;;-6.79;84.35;98705.07;106862;1264;22633;-71
2024/01/11 07:58:08;;;;;;;47.80;42.80;;;;;;;-6.63;84.43;98688.98;106853;1270;25332;-71
2024/01/11 08:00:36;;;;;;;52.60;47.00;;;;;;;-6.48;84.17;98681.16;106849;1275;25431;-72
2024/01/11 08:03:04;;;;;;;60.10;52.90;;;;;;;-6.28;84.17;98674.20;106772;1273;24379;-72
2024/01/11 08:05:33;;;;;;;82.30;62.10;;;;;;;-6.12;84.21;98667.89;106857;1257;22533;-71
2024/01/11 08:08:03;;;;;;;66.00;57.90;;;;;;;-5.99;84.15;98662.69;106976;1260;25386;-72
2024/01/11 08:10:31;;;;;;;60.70;54.00;;;;;;;-5.87;83.67;98652.29;106890;1267;22537;-73
2024/01/11 08:12:59;;;;;;;54.60;49.20;;;;;;;-5.78;82.94;98650.94;106971;1267;23788;-73
2024/01/11 08:15:27;;;;;;;62.30;55.90;;;;;;;-5.74;82.62;98647.79;106939;1275;22675;-74
2024/01/11 08:17:55;;;;;;;58.20;52.20;;;;;;;-5.68;82.51;98642.36;106842;1261;25505;-72
2024/01/11 08:20:23;;;;;;;64.00;57.30;;;;;;;-5.62;82.56;98640.45;106928;1275;23740;-72
2024/01/11 08:22:51;;;;;;;63.30;56.80;;;;;;;-5.52;82.54;98643.81;106948;1273;24264;-73
2024/01/11 08:25:19;;;;;;;59.60;53.30;;;;;;;-5.47;81.68;98636.09;106920;1271;22563;-73
2024/01/11 08:27:48;;;;;;;58.50;52.10;;;;;;;-5.44;81.96;98636.29;106949;1254;22662;-73
2024/01/11 08:30:16;;;;;;;59.60;53.20;;;;;;;-5.39;81.80;98636.96;106882;1272;24310;-72
2024/01/11 08:32:44;;;;;;;58.90;52.90;;;;;;;-5.35;81.60;98642.73;106871;1267;22536;-72
2024/01/11 08:35:12;;;;;;;59.00;52.70;;;;;;;-5.30;81.60;98642.37;106944;1274;25396;-72
2024/01/11 08:37:40;;;;;;;55.30;49.60;;;;;;;-5.31;80.70;98645.42;106879;1275;22641;-73
2024/01/11 08:40:09;;;;;;;57.40;51.40;;;;;;;-5.35;79.69;98638.77;107060;1260;22710;-72
2024/01/11 08:42:39;;;;;;;59.10;52.00;;;;;;;-5.44;79.41;98634.50;107026;1253;25464;-73
2024/01/11 08:45:07;;;;;;;61.50;54.90;;;;;;;-5.49;79.77;98637.05;107037;1260;22649;-74
2024/01/11 08:47:35;;;;;;;56.60;50.70;;;;;;;-5.48;80.13;98639.56;107019;1275;22559;-72
2024/01/11 08:50:06;;;;;;;56.40;50.50;;;;;;;-5.45;80.46;98639.61;107073;1263;22635;-72
2024/01/11 08:52:34;;;;;;;52.00;46.70;;;;;;;-5.41;80.17;98642.79;107045;1274;23918;-73
2024/01/11 08:55:02;;;;;;;54.10;48.50;;;;;;;-5.41;80.34;98646.64;106973;1275;24285;-73
2024/01/11 08:57:30;;;;;;;57.30;51.00;;;;;;;-5.38;80.82;98638.56;107113;1275;25427;-72
2024/01/11 08:59:58;;;;;;;52.30;46.70;;;;;;;-5.33;80.60;98651.65;107183;1260;25614;-72
2024/01/11 09:02:26;;;;;;;50.00;44.60;;;;;;;-5.31;80.56;98659.77;106978;1265;22593;-73
2024/01/11 09:04:54;;;;;;;45.70;40.70;;;;;;;-5.29;80.15;98661.14;107019;1268;24257;-73
2024/01/11 09:07:22;;;;;;;47.50;42.60;;;;;;;-5.26;80.57;98658.74;106923;1276;25300;-73
2024/01/11 09:09:50;;;;;;;51.50;46.00;;;;;;;-5.24;80.82;98659.38;106924;1262;22531;-73
2024/01/11 09:12:24;;;;;;;54.90;48.90;;;;;;;-5.24;80.78;98651.80;106964;1264;22605;-72
2024/01/11 09:14:52;;;;;;;59.20;51.10;;;;;;;-5.18;80.75;98647.67;106732;1262;22548;-72
2024/01/11 09:17:21;;;;;;;59.30;53.00;;;;;;;-5.12;80.89;98648.66;106967;1268;22534;-72
2024/01/11 09:19:51;;;;;;;63.60;56.90;;;;;;;-5.02;80.81;98653.29;107037;1275;23040;-72
2024/01/11 09:22:19;;;;;;;56.60;50.80;;;;;;;-4.89;80.79;98654.08;106979;1273;22555;-73
2024/01/11 09:24:47;;;;;;;56.80;50.70;;;;;;;-4.75;80.67;98653.50;107003;1261;25508;-72
2024/01/11 09:27:15;;;;;;;54.20;48.50;;;;;;;-4.66;80.53;98649.73;106939;1275;24273;-72
2024/01/11 09:29:44;;;;;;;55.30;49.60;;;;;;;-4.54;80.39;98651.27;106899;1252;24371;-72
2024/01/11 09:32:13;;;;;;;48.90;44.00;;;;;;;-4.45;80.29;98644.61;106930;1264;22535;-73
2024/01/11 09:34:41;;;;;;;47.50;42.70;;;;;;;-4.35;80.33;98645.67;106936;1261;25421;-73
2024/01/11 09:37:09;;;;;;;47.30;42.30;;;;;;;-4.29;79.98;98632.38;106863;1264;23260;-74
2024/01/11 09:39:37;;;;;;;46.70;41.70;;;;;;;-4.22;79.53;98635.13;106908;1275;23967;-72
2024/01/11 09:42:09;;;;;;;46.60;41.80;;;;;;;-4.20;78.89;98637.38;107021;1275;22715;-73
2024/01/11 09:44:39;;;;;;;48.20;43.00;;;;;;;-4.15;79.03;98622.67;107159;1275;22574;-73
2024/01/11 09:47:11;;;;;;;44.90;40.00;;;;;;;-4.06;78.08;98618.56;107462;1267;22542;-72
2024/01/11 09:49:45;;;;;;;46.10;41.50;;;;;;;-4.00;77.45;98614.02;107387;1275;22541;-73
2024/01/11 09:52:16;;;;;;;48.50;43.40;;;;;;;-3.94;77.43;98614.56;106942;1276;25255;-73
2024/01/11 09:54:45;;;;;;;46.90;41.90;;;;;;;-3.88;77.21;98615.27;106959;1275;154690;-73
2024/01/11 09:57:20;;;;;;;48.30;41.90;;;;;;;-3.85;76.66;98606.98;107048;1275;24434;-74
2024/01/11 09:59:51;;;;;;;50.90;45.40;;;;;;;-3.83;76.04;98592.55;106960;1267;22532;-73
2024/01/11 10:02:19;;;;;;;51.30;45.60;;;;;;;-3.84;76.14;98595.54;106907;1275;24007;-73
2024/01/11 10:04:48;;;;;;;50.20;44.90;;;;;;;-3.80;76.20;98595.52;106903;1273;23121;-72
2024/01/11 10:07:20;;;;;;;48.40;43.50;;;;;;;-3.74;75.80;98593.36;107004;1265;24215;-73
2024/01/11 10:09:49;;;;;;;57.90;50.10;;;;;;;-3.71;74.64;98585.77;106976;1264;23240;-72
2024/01/11 10:12:20;;;;;;;59.90;53.70;;;;;;;-3.71;74.63;98585.36;106808;1255;24247;-73
2024/01/11 10:14:48;;;;;;;53.20;47.50;;;;;;;-3.69;74.54;98577.89;106876;1273;22585;-73
2024/01/11 10:17:16;;;;;;;59.20;52.90;;;;;;;-3.63;74.97;98565.53;106849;1270;23928;-73
2024/01/11 10:19:49;;;;;;;58.70;52.20;;;;;;;-3.60;74.83;98557.70;107016;1269;22545;-73
2024/01/11 10:22:20;;;;;;;53.10;47.30;;;;;;;-3.54;74.87;98560.17;107008;1261;23894;-73
2024/01/11 10:25:08;;;;;;;50.80;44.40;;;;;;;-3.50;74.45;98568.88;106852;1270;25825;-74
2024/01/11 10:27:37;;;;;;;;;;;;;;;-3.45;74.74;98563.23;107248;1268;22517;-74
2024/01/11 10:30:07;;;;;;;52.00;45.50;;;;;;;-3.41;74.76;98562.13;106895;1275;22657;-75
2024/01/11 10:32:35;;;;;;;48.40;42.90;;;;;;;-3.37;74.66;98559.72;106956;1273;22755;-75
2024/01/11 10:35:04;;;;;;;52.20;43.10;;;;;;;-3.31;74.38;98560.58;106882;1268;25290;-75
2024/01/11 10:37:33;;;;;;;52.20;46.50;;;;;;;-3.30;74.76;98566.13;107036;1262;23097;-75
2024/01/11 10:40:09;;;;;;;60.00;48.40;;;;;;;-3.29;75.00;98553.61;106861;1268;22578;-74
2024/01/11 10:42:51;;;;;;;56.30;50.20;;;;;;;-3.24;75.36;98552.14;107009;1260;25389;-75
2024/01/11 10:45:20;;;;;;;51.00;45.40;;;;;;;-3.18;75.28;98553.30;107071;1264;22563;-75
2024/01/11 10:47:59;;;;;;;61.70;47.10;;;;;;;-3.15;75.36;98553.16;106820;1270;22546;-75
2024/01/11 10:50:36;;;;;;;50.30;45.00;;;;;;;-3.11;75.44;98550.63;107039;1266;24337;-76
2024/01/11 10:53:24;;;;;;;50.20;44.40;;;;;;;-3.07;75.14;98544.89;106930;1275;24273;-76
2024/01/11 10:55:53;;;;;;;50.50;44.20;;;;;;;-3.03;74.73;98548.73;106864;1273;22553;-76
2024/01/11 10:58:22;;;;;;;52.50;46.80;;;;;;;-3.03;73.95;98551.81;106836;1275;23989;-75
2024/01/11 11:00:54;;;;;;;48.50;43.30;;;;;;;-3.01;73.20;98541.63;106983;1275;22527;-74
2024/01/11 11:03:26;;;;;;;54.60;48.60;;;;;;;-3.01;72.87;98530.96;106967;1275;24357;-74
2024/01/11 11:05:56;;;;;;;52.90;46.90;;;;;;;-2.99;73.24;98525.51;106948;1273;22560;-74
2024/01/11 11:08:27;;;;;;;51.90;45.20;;;;;;;-2.93;73.06;98524.35;107022;1275;24276;-75
2024/01/11 11:11:00;;;;;;;46.90;41.90;;;;;;;-2.90;72.25;98511.75;107008;1265;25259;-74